sensor_id;sensor_type;location;lat;lon;timestamp;pressure;altitude;pressure_sealevel;temperature;humidity
19884;BME280;10104;50.732;10.174;2022-07-22T00:01:14;98223.41;;;21.11;78.11
19884;BME280;10104;50.732;10.174;2022-07-22T00:03:36;98227.81;;;21.34;77.06
19884;BME280;10104;50.732;10.174;2022-07-22T00:05:57;98232.84;;;21.30;77.01
19884;BME280;10104;50.732;10.174;2022-07-22T00:08:19;98229.78;;;21.22;77.59
19884;BME280;10104;50.732;10.174;2022-07-22T00:10:41;98238.25;;;21.14;78.12
19884;BME280;10104;50.732;10.174;2022-07-22T00:13:03;98235.56;;;21.14;78.11
19884;BME280;10104;50.732;10.174;2022-07-22T00:15:25;98233.63;;;21.09;78.13
19884;BME280;10104;50.732;10.174;2022-07-22T00:17:47;98236.47;;;21.03;78.59
19884;BME280;10104;50.732;10.174;2022-07-22T00:20:08;98233.06;;;20.90;79.25
19884;BME280;10104;50.732;10.174;2022-07-22T00:22:30;98232.91;;;20.97;78.91
19884;BME280;10104;50.732;10.174;2022-07-22T00:24:51;98230.84;;;20.87;79.45
19884;BME280;10104;50.732;10.174;2022-07-22T00:27:13;98233.72;;;20.97;79.17
19884;BME280;10104;50.732;10.174;2022-07-22T00:29:34;98234.78;;;20.96;78.82
19884;BME280;10104;50.732;10.174;2022-07-22T00:31:56;98229.22;;;20.86;79.42
19884;BME280;10104;50.732;10.174;2022-07-22T00:34:17;98232.66;;;20.82;79.73
19884;BME280;10104;50.732;10.174;2022-07-22T00:36:39;98228.16;;;20.87;79.26
19884;BME280;10104;50.732;10.174;2022-07-22T00:39:01;98232.56;;;20.77;80.15
19884;BME280;10104;50.732;10.174;2022-07-22T00:41:22;98232.41;;;20.83;79.49
19884;BME280;10104;50.732;10.174;2022-07-22T00:44:11;98231.13;;;20.86;79.48
19884;BME280;10104;50.732;10.174;2022-07-22T00:46:34;98233.47;;;20.82;79.53
19884;BME280;10104;50.732;10.174;2022-07-22T00:48:56;98233.22;;;20.84;79.47
19884;BME280;10104;50.732;10.174;2022-07-22T00:51:19;98237.13;;;20.76;80.01
19884;BME280;10104;50.732;10.174;2022-07-22T00:53:41;98234.28;;;20.66;80.24
19884;BME280;10104;50.732;10.174;2022-07-22T00:56:03;98231.41;;;20.56;81.44
19884;BME280;10104;50.732;10.174;2022-07-22T00:58:25;98230.44;;;20.62;80.91
19884;BME280;10104;50.732;10.174;2022-07-22T01:00:47;98231.09;;;20.52;81.59
19884;BME280;10104;50.732;10.174;2022-07-22T01:03:08;98237.38;;;20.58;81.12
19884;BME280;10104;50.732;10.174;2022-07-22T01:05:30;98235.97;;;20.55;81.18
19884;BME280;10104;50.732;10.174;2022-07-22T01:07:51;98227.81;;;20.50;81.06
19884;BME280;10104;50.732;10.174;2022-07-22T01:10:13;98231.56;;;20.49;81.25
19884;BME280;10104;50.732;10.174;2022-07-22T01:12:35;98229.69;;;20.50;81.02
19884;BME280;10104;50.732;10.174;2022-07-22T01:14:56;98230.50;;;20.50;80.74
19884;BME280;10104;50.732;10.174;2022-07-22T01:17:18;98221.78;;;20.43;81.46
19884;BME280;10104;50.732;10.174;2022-07-22T01:19:39;98229.97;;;20.48;80.96
19884;BME280;10104;50.732;10.174;2022-07-22T01:22:01;98223.19;;;20.46;81.13
19884;BME280;10104;50.732;10.174;2022-07-22T01:24:22;98228.41;;;20.36;81.57
19884;BME280;10104;50.732;10.174;2022-07-22T01:26:44;98230.00;;;20.37;81.75
19884;BME280;10104;50.732;10.174;2022-07-22T01:29:07;98222.44;;;20.34;81.83
19884;BME280;10104;50.732;10.174;2022-07-22T01:31:29;98222.47;;;20.22;82.24
19884;BME280;10104;50.732;10.174;2022-07-22T01:33:51;98232.72;;;20.25;82.26
19884;BME280;10104;50.732;10.174;2022-07-22T01:36:12;98224.78;;;20.30;82.23
19884;BME280;10104;50.732;10.174;2022-07-22T01:38:34;98217.81;;;20.17;82.59
19884;BME280;10104;50.732;10.174;2022-07-22T01:40:56;98220.16;;;20.14;83.29
19884;BME280;10104;50.732;10.174;2022-07-22T01:43:17;98224.63;;;20.08;83.35
19884;BME280;10104;50.732;10.174;2022-07-22T01:45:41;98219.78;;;20.22;82.95
19884;BME280;10104;50.732;10.174;2022-07-22T01:48:03;98228.31;;;20.19;82.80
19884;BME280;10104;50.732;10.174;2022-07-22T01:50:25;98228.56;;;20.17;82.83
19884;BME280;10104;50.732;10.174;2022-07-22T01:52:46;98223.38;;;20.28;82.43
19884;BME280;10104;50.732;10.174;2022-07-22T01:55:09;98228.81;;;20.16;83.13
19884;BME280;10104;50.732;10.174;2022-07-22T01:57:31;98228.06;;;20.20;82.87
19884;BME280;10104;50.732;10.174;2022-07-22T01:59:52;98224.16;;;20.11;83.36
19884;BME280;10104;50.732;10.174;2022-07-22T02:02:14;98226.22;;;20.21;82.38
19884;BME280;10104;50.732;10.174;2022-07-22T02:04:36;98226.94;;;20.16;83.34
19884;BME280;10104;50.732;10.174;2022-07-22T02:06:58;98215.84;;;20.13;83.39
19884;BME280;10104;50.732;10.174;2022-07-22T02:09:19;98225.41;;;20.49;81.44
19884;BME280;10104;50.732;10.174;2022-07-22T02:11:41;98218.63;;;20.46;81.55
19884;BME280;10104;50.732;10.174;2022-07-22T02:14:02;98215.69;;;20.65;80.35
19884;BME280;10104;50.732;10.174;2022-07-22T02:16:24;98216.25;;;20.50;81.33
19884;BME280;10104;50.732;10.174;2022-07-22T02:18:46;98215.78;;;20.53;81.53
19884;BME280;10104;50.732;10.174;2022-07-22T02:21:08;98211.06;;;20.60;80.78
19884;BME280;10104;50.732;10.174;2022-07-22T02:23:29;98206.25;;;20.79;79.65
19884;BME280;10104;50.732;10.174;2022-07-22T02:25:51;98204.75;;;20.71;79.97
19884;BME280;10104;50.732;10.174;2022-07-22T02:28:12;98203.06;;;20.65;80.53
19884;BME280;10104;50.732;10.174;2022-07-22T02:30:34;98210.16;;;20.54;81.54
19884;BME280;10104;50.732;10.174;2022-07-22T02:32:57;98213.81;;;20.48;81.88
19884;BME280;10104;50.732;10.174;2022-07-22T02:35:18;98216.00;;;20.51;81.73
19884;BME280;10104;50.732;10.174;2022-07-22T02:37:40;98218.31;;;20.43;82.20
19884;BME280;10104;50.732;10.174;2022-07-22T02:40:04;98221.00;;;20.43;82.27
19884;BME280;10104;50.732;10.174;2022-07-22T02:42:26;98217.72;;;20.41;82.08
19884;BME280;10104;50.732;10.174;2022-07-22T02:44:48;98223.34;;;20.56;81.61
19884;BME280;10104;50.732;10.174;2022-07-22T02:47:10;98216.94;;;20.74;80.32
19884;BME280;10104;50.732;10.174;2022-07-22T02:49:31;98209.41;;;20.59;81.21
19884;BME280;10104;50.732;10.174;2022-07-22T02:51:53;98218.94;;;20.50;81.88
19884;BME280;10104;50.732;10.174;2022-07-22T02:54:14;98219.28;;;20.53;81.76
19884;BME280;10104;50.732;10.174;2022-07-22T02:56:36;98226.44;;;20.48;82.04
19884;BME280;10104;50.732;10.174;2022-07-22T02:58:57;98230.03;;;20.53;81.85
19884;BME280;10104;50.732;10.174;2022-07-22T03:01:20;98225.28;;;20.44;82.44
19884;BME280;10104;50.732;10.174;2022-07-22T03:03:42;98234.59;;;20.53;81.92
19884;BME280;10104;50.732;10.174;2022-07-22T03:06:03;98234.53;;;20.65;81.22
19884;BME280;10104;50.732;10.174;2022-07-22T03:08:25;98233.06;;;20.57;81.71
19884;BME280;10104;50.732;10.174;2022-07-22T03:10:47;98222.72;;;20.66;81.42
19884;BME280;10104;50.732;10.174;2022-07-22T03:13:08;98224.25;;;20.62;81.47
19884;BME280;10104;50.732;10.174;2022-07-22T03:15:30;98233.72;;;20.47;82.65
19884;BME280;10104;50.732;10.174;2022-07-22T03:17:51;98229.53;;;20.56;82.18
19884;BME280;10104;50.732;10.174;2022-07-22T03:20:13;98229.97;;;20.65;81.52
19884;BME280;10104;50.732;10.174;2022-07-22T03:22:34;98235.19;;;20.55;82.03
19884;BME280;10104;50.732;10.174;2022-07-22T03:24:56;98232.88;;;20.47;82.89
19884;BME280;10104;50.732;10.174;2022-07-22T03:27:18;98234.69;;;20.41;83.12
19884;BME280;10104;50.732;10.174;2022-07-22T03:29:39;98226.13;;;20.61;82.24
19884;BME280;10104;50.732;10.174;2022-07-22T03:32:01;98235.75;;;20.57;82.40
19884;BME280;10104;50.732;10.174;2022-07-22T03:34:22;98236.25;;;20.71;81.57
19884;BME280;10104;50.732;10.174;2022-07-22T03:36:44;98235.97;;;20.55;82.12
19884;BME280;10104;50.732;10.174;2022-07-22T03:39:05;98236.25;;;20.54;82.52
19884;BME280;10104;50.732;10.174;2022-07-22T03:41:27;98236.31;;;20.59;82.59
19884;BME280;10104;50.732;10.174;2022-07-22T03:43:49;98239.00;;;20.59;82.33
19884;BME280;10104;50.732;10.174;2022-07-22T03:46:10;98232.16;;;20.51;82.61
19884;BME280;10104;50.732;10.174;2022-07-22T03:48:32;98244.03;;;20.39;83.39
19884;BME280;10104;50.732;10.174;2022-07-22T03:50:53;98236.94;;;20.33;83.74
19884;BME280;10104;50.732;10.174;2022-07-22T03:53:16;98249.34;;;20.34;83.69
19884;BME280;10104;50.732;10.174;2022-07-22T03:55:37;98244.06;;;20.27;84.16
19884;BME280;10104;50.732;10.174;2022-07-22T03:57:59;98234.09;;;20.39;83.71
19884;BME280;10104;50.732;10.174;2022-07-22T04:00:21;98233.94;;;20.46;83.11
19884;BME280;10104;50.732;10.174;2022-07-22T04:02:42;98237.53;;;20.35;83.79
19884;BME280;10104;50.732;10.174;2022-07-22T04:05:04;98232.16;;;20.51;83.27
19884;BME280;10104;50.732;10.174;2022-07-22T04:07:26;98238.19;;;20.42;83.38
19884;BME280;10104;50.732;10.174;2022-07-22T04:09:48;98242.09;;;20.34;84.44
19884;BME280;10104;50.732;10.174;2022-07-22T04:12:09;98233.72;;;20.47;83.24
19884;BME280;10104;50.732;10.174;2022-07-22T04:14:31;98236.47;;;20.52;82.99
19884;BME280;10104;50.732;10.174;2022-07-22T04:16:52;98235.50;;;20.58;82.68
19884;BME280;10104;50.732;10.174;2022-07-22T04:19:14;98232.72;;;20.53;82.74
19884;BME280;10104;50.732;10.174;2022-07-22T04:21:37;98225.16;;;20.67;81.81
19884;BME280;10104;50.732;10.174;2022-07-22T04:23:58;98225.13;;;20.50;82.80
19884;BME280;10104;50.732;10.174;2022-07-22T04:26:22;98229.44;;;20.35;83.86
19884;BME280;10104;50.732;10.174;2022-07-22T04:28:44;98235.91;;;20.50;83.30
19884;BME280;10104;50.732;10.174;2022-07-22T04:31:05;98229.38;;;20.46;83.40
19884;BME280;10104;50.732;10.174;2022-07-22T04:33:27;98236.72;;;20.51;83.23
19884;BME280;10104;50.732;10.174;2022-07-22T04:35:49;98239.69;;;20.66;82.40
19884;BME280;10104;50.732;10.174;2022-07-22T04:38:10;98235.03;;;20.78;81.46
19884;BME280;10104;50.732;10.174;2022-07-22T04:40:32;98229.97;;;20.82;81.18
19884;BME280;10104;50.732;10.174;2022-07-22T04:42:53;98236.91;;;20.61;82.48
19884;BME280;10104;50.732;10.174;2022-07-22T04:45:15;98234.13;;;20.73;82.01
19884;BME280;10104;50.732;10.174;2022-07-22T04:47:36;98233.63;;;20.76;81.43
19884;BME280;10104;50.732;10.174;2022-07-22T04:49:58;98234.22;;;20.78;81.17
19884;BME280;10104;50.732;10.174;2022-07-22T04:52:19;98233.22;;;20.84;81.25
19884;BME280;10104;50.732;10.174;2022-07-22T04:54:41;98239.97;;;20.86;80.77
19884;BME280;10104;50.732;10.174;2022-07-22T04:57:03;98230.84;;;20.87;80.39
19884;BME280;10104;50.732;10.174;2022-07-22T04:59:24;98227.09;;;20.88;80.20
19884;BME280;10104;50.732;10.174;2022-07-22T05:01:46;98240.81;;;20.70;81.77
19884;BME280;10104;50.732;10.174;2022-07-22T05:04:08;98232.25;;;20.73;81.54
19884;BME280;10104;50.732;10.174;2022-07-22T05:06:29;98245.13;;;20.71;81.63
19884;BME280;10104;50.732;10.174;2022-07-22T05:08:51;98244.31;;;20.71;81.66
19884;BME280;10104;50.732;10.174;2022-07-22T05:11:13;98242.03;;;20.79;81.20
19884;BME280;10104;50.732;10.174;2022-07-22T05:13:34;98248.72;;;20.77;81.53
19884;BME280;10104;50.732;10.174;2022-07-22T05:15:56;98247.59;;;20.73;81.89
19884;BME280;10104;50.732;10.174;2022-07-22T05:18:17;98242.19;;;20.89;80.89
19884;BME280;10104;50.732;10.174;2022-07-22T05:20:39;98247.34;;;20.91;80.24
19884;BME280;10104;50.732;10.174;2022-07-22T05:23:00;98246.38;;;20.97;80.18
19884;BME280;10104;50.732;10.174;2022-07-22T05:25:22;98250.69;;;20.98;80.21
19884;BME280;10104;50.732;10.174;2022-07-22T05:27:53;98253.22;;;20.88;80.91
19884;BME280;10104;50.732;10.174;2022-07-22T05:30:14;98253.63;;;20.80;82.08
19884;BME280;10104;50.732;10.174;2022-07-22T05:32:44;98245.03;;;20.99;81.44
19884;BME280;10104;50.732;10.174;2022-07-22T05:35:05;98252.22;;;21.11;80.87
19884;BME280;10104;50.732;10.174;2022-07-22T05:37:27;98250.09;;;21.29;79.88
19884;BME280;10104;50.732;10.174;2022-07-22T05:39:48;98263.56;;;21.29;79.17
19884;BME280;10104;50.732;10.174;2022-07-22T05:42:10;98254.00;;;21.38;78.50
19884;BME280;10104;50.732;10.174;2022-07-22T05:44:31;98259.38;;;21.38;78.42
19884;BME280;10104;50.732;10.174;2022-07-22T05:46:53;98262.16;;;21.44;77.92
19884;BME280;10104;50.732;10.174;2022-07-22T05:49:14;98260.13;;;21.34;78.06
19884;BME280;10104;50.732;10.174;2022-07-22T05:51:36;98263.47;;;21.41;77.83
19884;BME280;10104;50.732;10.174;2022-07-22T05:53:58;98251.53;;;21.37;78.09
19884;BME280;10104;50.732;10.174;2022-07-22T05:56:19;98258.63;;;21.43;77.75
19884;BME280;10104;50.732;10.174;2022-07-22T05:58:41;98260.84;;;21.29;77.89
19884;BME280;10104;50.732;10.174;2022-07-22T06:01:04;98261.50;;;21.36;78.11
19884;BME280;10104;50.732;10.174;2022-07-22T06:03:25;98259.66;;;21.59;77.06
19884;BME280;10104;50.732;10.174;2022-07-22T06:05:47;98262.66;;;21.62;76.67
19884;BME280;10104;50.732;10.174;2022-07-22T06:08:08;98260.13;;;21.72;75.88
19884;BME280;10104;50.732;10.174;2022-07-22T06:10:30;98263.00;;;21.66;76.12
19884;BME280;10104;50.732;10.174;2022-07-22T06:12:52;98264.75;;;21.77;75.61
19884;BME280;10104;50.732;10.174;2022-07-22T06:15:13;98260.13;;;21.72;75.46
19884;BME280;10104;50.732;10.174;2022-07-22T06:17:35;98265.38;;;21.84;75.49
19884;BME280;10104;50.732;10.174;2022-07-22T06:19:56;98267.91;;;21.91;75.03
19884;BME280;10104;50.732;10.174;2022-07-22T06:22:18;98261.41;;;21.92;74.24
19884;BME280;10104;50.732;10.174;2022-07-22T06:24:39;98271.28;;;21.81;74.73
19884;BME280;10104;50.732;10.174;2022-07-22T06:27:01;98266.13;;;21.79;74.74
19884;BME280;10104;50.732;10.174;2022-07-22T06:29:23;98261.59;;;21.85;74.52
19884;BME280;10104;50.732;10.174;2022-07-22T06:31:44;98276.09;;;21.79;74.97
19884;BME280;10104;50.732;10.174;2022-07-22T06:34:06;98270.00;;;21.67;75.15
19884;BME280;10104;50.732;10.174;2022-07-22T06:36:28;98272.63;;;21.62;75.35
19884;BME280;10104;50.732;10.174;2022-07-22T06:38:49;98270.88;;;21.51;75.99
19884;BME280;10104;50.732;10.174;2022-07-22T06:41:11;98267.06;;;21.47;76.42
19884;BME280;10104;50.732;10.174;2022-07-22T06:43:34;98265.72;;;21.49;76.72
19884;BME280;10104;50.732;10.174;2022-07-22T06:45:56;98270.50;;;21.64;75.57
19884;BME280;10104;50.732;10.174;2022-07-22T06:48:18;98261.59;;;21.63;75.37
19884;BME280;10104;50.732;10.174;2022-07-22T06:50:40;98260.56;;;21.64;75.47
19884;BME280;10104;50.732;10.174;2022-07-22T06:53:02;98269.06;;;21.56;76.27
19884;BME280;10104;50.732;10.174;2022-07-22T06:55:24;98258.63;;;21.60;76.20
19884;BME280;10104;50.732;10.174;2022-07-22T06:57:45;98258.03;;;21.58;76.35
19884;BME280;10104;50.732;10.174;2022-07-22T07:00:07;98265.38;;;21.62;75.76
19884;BME280;10104;50.732;10.174;2022-07-22T07:02:30;98262.44;;;21.64;75.94
19884;BME280;10104;50.732;10.174;2022-07-22T07:04:51;98265.50;;;21.72;74.70
19884;BME280;10104;50.732;10.174;2022-07-22T07:07:13;98264.75;;;21.77;74.50
19884;BME280;10104;50.732;10.174;2022-07-22T07:09:39;98270.50;;;21.86;74.26
19884;BME280;10104;50.732;10.174;2022-07-22T07:12:01;98265.88;;;21.81;73.75
19884;BME280;10104;50.732;10.174;2022-07-22T07:14:23;98266.94;;;21.80;74.32
19884;BME280;10104;50.732;10.174;2022-07-22T07:16:44;98262.41;;;21.86;74.43
19884;BME280;10104;50.732;10.174;2022-07-22T07:19:06;98262.41;;;22.02;72.96
19884;BME280;10104;50.732;10.174;2022-07-22T07:21:27;98259.19;;;22.05;72.41
19884;BME280;10104;50.732;10.174;2022-07-22T07:23:49;98257.88;;;22.35;71.32
19884;BME280;10104;50.732;10.174;2022-07-22T07:26:12;98248.94;;;22.61;69.72
19884;BME280;10104;50.732;10.174;2022-07-22T07:28:34;98255.66;;;22.85;68.80
19884;BME280;10104;50.732;10.174;2022-07-22T07:30:57;98255.19;;;22.67;68.54
19884;BME280;10104;50.732;10.174;2022-07-22T07:33:18;98252.16;;;22.85;67.71
19884;BME280;10104;50.732;10.174;2022-07-22T07:35:40;98249.13;;;23.13;66.73
19884;BME280;10104;50.732;10.174;2022-07-22T07:38:02;98246.41;;;23.08;67.08
19884;BME280;10104;50.732;10.174;2022-07-22T07:40:24;98245.09;;;23.21;66.35
19884;BME280;10104;50.732;10.174;2022-07-22T07:42:46;98248.81;;;23.52;64.58
19884;BME280;10104;50.732;10.174;2022-07-22T07:45:20;98249.72;;;23.62;63.79
19884;BME280;10104;50.732;10.174;2022-07-22T07:47:42;98242.66;;;23.56;64.51
19884;BME280;10104;50.732;10.174;2022-07-22T07:50:05;98242.47;;;23.73;63.76
19884;BME280;10104;50.732;10.174;2022-07-22T07:52:28;98237.06;;;23.78;63.07
19884;BME280;10104;50.732;10.174;2022-07-22T07:54:50;98239.88;;;24.13;62.29
19884;BME280;10104;50.732;10.174;2022-07-22T07:57:32;98230.75;;;24.35;61.10
19884;BME280;10104;50.732;10.174;2022-07-22T07:59:55;98237.81;;;24.36;62.06
19884;BME280;10104;50.732;10.174;2022-07-22T08:02:16;98234.56;;;24.54;60.17
19884;BME280;10104;50.732;10.174;2022-07-22T08:04:38;98225.13;;;24.62;60.81
19884;BME280;10104;50.732;10.174;2022-07-22T08:07:08;98232.44;;;24.91;58.33
19884;BME280;10104;50.732;10.174;2022-07-22T08:09:29;98234.03;;;25.13;56.68
19884;BME280;10104;50.732;10.174;2022-07-22T08:11:51;98225.59;;;25.24;56.89
19884;BME280;10104;50.732;10.174;2022-07-22T08:14:13;98229.94;;;25.25;57.50
19884;BME280;10104;50.732;10.174;2022-07-22T08:16:35;98232.88;;;25.44;56.02
19884;BME280;10104;50.732;10.174;2022-07-22T08:18:58;98229.13;;;25.35;56.00
19884;BME280;10104;50.732;10.174;2022-07-22T08:21:20;98229.94;;;25.41;54.38
19884;BME280;10104;50.732;10.174;2022-07-22T08:23:41;98230.97;;;25.50;54.81
19884;BME280;10104;50.732;10.174;2022-07-22T08:26:05;98226.88;;;25.72;54.49
19884;BME280;10104;50.732;10.174;2022-07-22T08:28:26;98226.72;;;26.03;52.82
19884;BME280;10104;50.732;10.174;2022-07-22T08:30:48;98222.63;;;26.05;53.06
19884;BME280;10104;50.732;10.174;2022-07-22T08:33:09;98222.00;;;26.18;52.71
19884;BME280;10104;50.732;10.174;2022-07-22T08:35:31;98224.72;;;26.24;51.58
19884;BME280;10104;50.732;10.174;2022-07-22T08:37:53;98219.00;;;26.25;51.28
19884;BME280;10104;50.732;10.174;2022-07-22T08:40:16;98222.47;;;26.36;51.04
19884;BME280;10104;50.732;10.174;2022-07-22T08:42:41;98216.25;;;26.35;50.92
19884;BME280;10104;50.732;10.174;2022-07-22T08:45:03;98217.78;;;26.46;50.20
19884;BME280;10104;50.732;10.174;2022-07-22T08:47:26;98210.81;;;26.35;50.13
19884;BME280;10104;50.732;10.174;2022-07-22T08:50:03;98216.47;;;26.39;50.55
19884;BME280;10104;50.732;10.174;2022-07-22T08:52:28;98212.28;;;26.56;50.28
19884;BME280;10104;50.732;10.174;2022-07-22T08:54:50;98209.41;;;26.77;49.47
19884;BME280;10104;50.732;10.174;2022-07-22T08:57:11;98211.19;;;26.86;49.35
19884;BME280;10104;50.732;10.174;2022-07-22T08:59:33;98207.22;;;26.74;50.57
19884;BME280;10104;50.732;10.174;2022-07-22T09:02:21;98199.09;;;27.08;49.01
19884;BME280;10104;50.732;10.174;2022-07-22T09:05:00;98199.59;;;27.10;48.14
19884;BME280;10104;50.732;10.174;2022-07-22T09:07:44;98194.47;;;27.08;47.72
19884;BME280;10104;50.732;10.174;2022-07-22T09:10:12;98200.22;;;27.02;48.22
19884;BME280;10104;50.732;10.174;2022-07-22T09:12:56;98192.00;;;27.07;48.03
19884;BME280;10104;50.732;10.174;2022-07-22T09:15:31;98193.53;;;27.18;47.97
19884;BME280;10104;50.732;10.174;2022-07-22T09:17:55;98195.63;;;27.26;46.92
19884;BME280;10104;50.732;10.174;2022-07-22T09:20:25;98194.06;;;27.20;46.85
19884;BME280;10104;50.732;10.174;2022-07-22T09:22:48;98195.22;;;27.14;47.55
19884;BME280;10104;50.732;10.174;2022-07-22T09:25:32;98191.78;;;27.03;47.75
19884;BME280;10104;50.732;10.174;2022-07-22T09:30:46;98184.47;;;26.98;47.16
19884;BME280;10104;50.732;10.174;2022-07-22T09:33:08;98189.56;;;27.05;46.96
19884;BME280;10104;50.732;10.174;2022-07-22T09:35:30;98182.09;;;27.45;46.24
19884;BME280;10104;50.732;10.174;2022-07-22T09:37:55;98187.53;;;27.21;47.30
19884;BME280;10104;50.732;10.174;2022-07-22T09:40:20;98184.84;;;27.16;46.41
19884;BME280;10104;50.732;10.174;2022-07-22T09:42:47;98183.09;;;27.01;46.43
19884;BME280;10104;50.732;10.174;2022-07-22T09:45:09;98188.69;;;26.81;47.40
19884;BME280;10104;50.732;10.174;2022-07-22T09:47:30;98183.03;;;27.06;47.70
19884;BME280;10104;50.732;10.174;2022-07-22T09:49:59;98188.25;;;27.03;46.92
19884;BME280;10104;50.732;10.174;2022-07-22T09:52:21;98191.09;;;27.16;45.64
19884;BME280;10104;50.732;10.174;2022-07-22T09:54:43;98191.38;;;26.91;46.32
19884;BME280;10104;50.732;10.174;2022-07-22T09:57:04;98182.84;;;26.97;46.33
19884;BME280;10104;50.732;10.174;2022-07-22T09:59:26;98188.06;;;26.94;46.32
19884;BME280;10104;50.732;10.174;2022-07-22T10:01:50;98179.91;;;26.94;47.06
19884;BME280;10104;50.732;10.174;2022-07-22T10:04:13;98188.94;;;26.84;47.40
19884;BME280;10104;50.732;10.174;2022-07-22T10:06:37;98180.91;;;27.03;46.34
19884;BME280;10104;50.732;10.174;2022-07-22T10:08:59;98176.84;;;26.72;47.29
19884;BME280;10104;50.732;10.174;2022-07-22T10:11:30;98175.59;;;26.59;47.85
19884;BME280;10104;50.732;10.174;2022-07-22T10:13:52;98174.78;;;26.58;48.21
19884;BME280;10104;50.732;10.174;2022-07-22T10:16:14;98169.56;;;26.62;48.32
19884;BME280;10104;50.732;10.174;2022-07-22T10:18:36;98165.84;;;26.82;47.11
19884;BME280;10104;50.732;10.174;2022-07-22T10:21:06;98170.94;;;26.93;46.73
19884;BME280;10104;50.732;10.174;2022-07-22T10:23:29;98162.22;;;26.96;47.24
19884;BME280;10104;50.732;10.174;2022-07-22T10:25:55;98156.72;;;27.02;46.58
19884;BME280;10104;50.732;10.174;2022-07-22T10:28:37;98158.78;;;26.81;47.27
19884;BME280;10104;50.732;10.174;2022-07-22T10:31:20;98157.59;;;26.97;46.28
19884;BME280;10104;50.732;10.174;2022-07-22T10:33:48;98150.75;;;27.00;46.33
19884;BME280;10104;50.732;10.174;2022-07-22T10:36:10;98144.44;;;27.04;46.49
19884;BME280;10104;50.732;10.174;2022-07-22T10:38:33;98151.06;;;27.22;45.85
19884;BME280;10104;50.732;10.174;2022-07-22T10:41:03;98146.72;;;27.21;45.77
19884;BME280;10104;50.732;10.174;2022-07-22T10:43:26;98139.53;;;27.06;46.53
19884;BME280;10104;50.732;10.174;2022-07-22T10:45:55;98143.94;;;27.26;46.33
19884;BME280;10104;50.732;10.174;2022-07-22T10:51:14;98140.53;;;27.63;45.76
19884;BME280;10104;50.732;10.174;2022-07-22T10:56:13;98146.19;;;27.85;44.99
19884;BME280;10104;50.732;10.174;2022-07-22T11:00:58;98135.03;;;27.87;44.35
19884;BME280;10104;50.732;10.174;2022-07-22T11:03:24;98137.56;;;28.21;43.36
19884;BME280;10104;50.732;10.174;2022-07-22T11:05:46;98132.03;;;28.26;43.43
19884;BME280;10104;50.732;10.174;2022-07-22T11:08:08;98123.31;;;28.05;42.33
19884;BME280;10104;50.732;10.174;2022-07-22T11:10:30;98125.16;;;28.09;42.37
19884;BME280;10104;50.732;10.174;2022-07-22T11:12:52;98123.63;;;28.22;42.55
19884;BME280;10104;50.732;10.174;2022-07-22T11:15:14;98122.06;;;28.35;42.43
19884;BME280;10104;50.732;10.174;2022-07-22T11:17:37;98108.66;;;28.52;42.19
19884;BME280;10104;50.732;10.174;2022-07-22T11:19:58;98109.31;;;28.63;43.04
19884;BME280;10104;50.732;10.174;2022-07-22T11:22:21;98111.44;;;28.66;41.73
19884;BME280;10104;50.732;10.174;2022-07-22T11:24:48;98099.91;;;28.55;42.10
19884;BME280;10104;50.732;10.174;2022-07-22T11:27:15;98100.81;;;28.64;42.42
19884;BME280;10104;50.732;10.174;2022-07-22T11:29:39;98099.63;;;28.70;42.39
19884;BME280;10104;50.732;10.174;2022-07-22T11:32:10;98104.44;;;28.92;40.60
19884;BME280;10104;50.732;10.174;2022-07-22T11:34:32;98096.66;;;28.85;40.96
19884;BME280;10104;50.732;10.174;2022-07-22T11:36:55;98088.88;;;29.20;39.73
19884;BME280;10104;50.732;10.174;2022-07-22T11:39:22;98094.44;;;29.28;40.30
19884;BME280;10104;50.732;10.174;2022-07-22T11:41:44;98092.31;;;29.53;40.80
19884;BME280;10104;50.732;10.174;2022-07-22T11:44:06;98090.38;;;29.67;38.94
19884;BME280;10104;50.732;10.174;2022-07-22T11:46:34;98079.19;;;29.91;38.54
19884;BME280;10104;50.732;10.174;2022-07-22T11:48:56;98076.22;;;30.01;39.15
19884;BME280;10104;50.732;10.174;2022-07-22T11:51:19;98072.97;;;30.43;38.10
19884;BME280;10104;50.732;10.174;2022-07-22T11:53:41;98071.06;;;30.66;37.48
19884;BME280;10104;50.732;10.174;2022-07-22T11:56:04;98066.47;;;30.84;37.65
19884;BME280;10104;50.732;10.174;2022-07-22T11:58:33;98067.84;;;31.04;36.72
19884;BME280;10104;50.732;10.174;2022-07-22T12:00:55;98059.19;;;31.10;36.49
19884;BME280;10104;50.732;10.174;2022-07-22T12:03:17;98066.09;;;31.08;35.45
19884;BME280;10104;50.732;10.174;2022-07-22T12:05:39;98051.31;;;31.17;35.47
19884;BME280;10104;50.732;10.174;2022-07-22T12:08:01;98055.41;;;31.46;35.64
19884;BME280;10104;50.732;10.174;2022-07-22T12:10:23;98056.41;;;31.67;35.10
19884;BME280;10104;50.732;10.174;2022-07-22T12:12:46;98041.59;;;31.77;34.84
19884;BME280;10104;50.732;10.174;2022-07-22T12:15:08;98041.72;;;31.97;34.62
19884;BME280;10104;50.732;10.174;2022-07-22T12:17:50;98035.16;;;32.16;34.36
19884;BME280;10104;50.732;10.174;2022-07-22T12:20:12;98029.25;;;32.51;33.62
19884;BME280;10104;50.732;10.174;2022-07-22T12:22:44;98028.16;;;32.90;32.97
19884;BME280;10104;50.732;10.174;2022-07-22T12:25:06;98022.50;;;33.25;32.86
19884;BME280;10104;50.732;10.174;2022-07-22T12:27:29;98027.66;;;33.47;31.88
19884;BME280;10104;50.732;10.174;2022-07-22T12:29:52;98021.75;;;33.87;31.54
19884;BME280;10104;50.732;10.174;2022-07-22T12:32:24;98013.75;;;34.84;30.51
19884;BME280;10104;50.732;10.174;2022-07-22T12:34:48;98014.50;;;35.97;29.59
19884;BME280;10104;50.732;10.174;2022-07-22T12:39:55;98006.91;;;37.13;27.88
19884;BME280;10104;50.732;10.174;2022-07-22T12:42:17;97998.00;;;37.74;26.36